createdAt,value
2018-02-21T00:00:47.370Z,21.96
2018-02-21T00:01:47.331Z,21.89
2018-02-21T00:02:47.359Z,21.91
2018-02-21T00:03:47.389Z,21.97
2018-02-21T00:04:47.416Z,21.96
2018-02-21T00:05:47.440Z,21.99
2018-02-21T00:06:47.493Z,21.92
2018-02-21T00:07:47.494Z,21.97
2018-02-21T00:08:47.522Z,21.96
2018-02-21T00:09:47.548Z,21.99
2018-02-21T00:10:47.575Z,22.07
2018-02-21T00:11:47.603Z,21.94
2018-02-21T00:12:47.630Z,21.99
2018-02-21T00:13:47.684Z,21.96
2018-02-21T00:14:47.684Z,21.97
2018-02-21T00:15:47.712Z,21.94
2018-02-21T00:16:47.738Z,21.94
2018-02-21T00:17:47.808Z,21.99
2018-02-21T00:18:47.810Z,22.00
2018-02-21T00:19:47.819Z,21.97
2018-02-21T00:20:47.847Z,22.03
2018-02-21T00:21:47.875Z,21.92
2018-02-21T00:22:47.902Z,21.94
2018-02-21T00:23:47.928Z,21.84
2018-02-21T00:24:47.960Z,21.94
2018-02-21T00:25:47.982Z,21.94
2018-02-21T00:26:48.026Z,22.01
2018-02-21T00:27:48.036Z,21.94
2018-02-21T00:28:48.064Z,21.92
2018-02-21T00:29:48.091Z,22.00
2018-02-21T00:30:48.118Z,21.92
2018-02-21T00:31:48.145Z,21.99
2018-02-21T00:32:48.172Z,21.91
2018-02-21T00:33:48.198Z,21.92
2018-02-21T00:34:48.254Z,21.99
2018-02-21T00:35:48.255Z,21.92
2018-02-21T00:36:48.281Z,21.96
2018-02-21T00:37:48.309Z,21.91
2018-02-21T00:38:48.339Z,22.01
2018-02-21T00:39:48.362Z,21.92
2018-02-21T00:40:48.389Z,21.96
2018-02-21T00:41:48.416Z,21.96
2018-02-21T00:42:48.443Z,22.03
2018-02-21T00:43:48.470Z,21.91
2018-02-21T00:44:48.497Z,21.92
2018-02-21T00:45:48.528Z,21.92
2018-02-21T00:46:48.550Z,21.96
2018-02-21T00:47:48.578Z,21.99
2018-02-21T00:48:48.605Z,21.94
2018-02-21T00:49:48.632Z,21.83
2018-02-21T00:50:48.659Z,21.91
2018-02-21T00:51:48.688Z,21.89
2018-02-21T00:52:48.715Z,22.00
2018-02-21T00:53:48.740Z,21.89
2018-02-21T00:54:48.768Z,21.96
2018-02-21T00:55:48.794Z,21.97
2018-02-21T00:56:48.823Z,21.88
2018-02-21T00:57:48.849Z,21.92
2018-02-21T00:58:48.894Z,21.92
2018-02-21T00:59:48.903Z,21.91
2018-02-21T01:00:48.930Z,21.97
2018-02-21T01:01:48.956Z,21.89
2018-02-21T01:02:48.984Z,21.96
2018-02-21T01:03:49.044Z,21.92
2018-02-21T01:04:49.040Z,21.91
2018-02-21T01:05:49.065Z,21.89
2018-02-21T01:06:49.092Z,21.92
2018-02-21T01:07:49.119Z,21.91
2018-02-21T01:08:49.146Z,21.91
2018-02-21T01:09:49.173Z,21.91
2018-02-21T01:10:49.203Z,21.91
2018-02-21T01:11:49.228Z,21.92
2018-02-21T01:12:49.256Z,21.94
2018-02-21T01:13:49.281Z,21.96
2018-02-21T01:14:49.308Z,21.92
2018-02-21T01:15:49.337Z,21.97
2018-02-21T01:16:49.363Z,21.96
2018-02-21T01:17:49.392Z,21.94
2018-02-21T01:18:49.417Z,21.97
2018-02-21T01:19:49.444Z,22.00
2018-02-21T01:20:49.472Z,21.91
2018-02-21T01:21:49.498Z,21.92
2018-02-21T01:22:49.525Z,21.96
2018-02-21T01:23:49.553Z,21.97
2018-02-21T01:24:49.580Z,21.88
2018-02-21T01:25:49.606Z,21.92
2018-02-21T01:26:49.634Z,21.94
2018-02-21T01:27:49.660Z,22.01
2018-02-21T01:28:49.688Z,21.88
2018-02-21T01:29:49.715Z,21.91
2018-02-21T01:30:49.741Z,21.99
2018-02-21T01:31:49.770Z,21.94
2018-02-21T01:32:49.799Z,21.94
2018-02-21T01:33:49.823Z,21.89
2018-02-21T01:34:49.849Z,21.97
2018-02-21T01:35:49.877Z,22.00
2018-02-21T01:36:49.904Z,21.97
2018-02-21T01:37:49.930Z,21.92
2018-02-21T01:38:49.962Z,21.96
2018-02-21T01:39:49.986Z,21.92
2018-02-21T01:40:50.013Z,21.94
2018-02-21T01:41:50.041Z,21.91
2018-02-21T01:42:50.078Z,21.85
2018-02-21T01:43:50.099Z,21.94
2018-02-21T01:44:50.121Z,21.96
2018-02-21T01:45:50.148Z,21.89
2018-02-21T01:46:50.182Z,21.94
2018-02-21T01:47:50.202Z,21.89
2018-02-21T01:48:50.229Z,21.89
2018-02-21T01:49:50.255Z,21.94
2018-02-21T01:50:50.283Z,21.96
2018-02-21T01:51:50.310Z,21.96
2018-02-21T01:52:50.338Z,21.89
2018-02-21T01:53:50.363Z,21.85
2018-02-21T01:54:50.391Z,21.94
2018-02-21T01:55:50.453Z,21.91
2018-02-21T01:56:50.446Z,21.91
2018-02-21T01:57:50.512Z,21.99
2018-02-21T01:58:50.549Z,21.91
2018-02-21T01:59:50.526Z,21.91
2018-02-21T02:00:50.554Z,21.89
2018-02-21T02:01:50.581Z,21.89
2018-02-21T02:02:50.607Z,21.88
2018-02-21T02:03:50.635Z,21.97
2018-02-21T02:04:50.662Z,21.94
2018-02-21T02:05:50.689Z,21.91
2018-02-21T02:06:50.716Z,21.88
2018-02-21T02:07:50.743Z,21.88
2018-02-21T02:08:50.771Z,21.88
2018-02-21T02:09:50.797Z,21.89
2018-02-21T02:10:50.824Z,21.88
2018-02-21T02:11:50.851Z,21.89
2018-02-21T02:12:50.904Z,21.94
2018-02-21T02:13:50.908Z,21.96
2018-02-21T02:14:50.933Z,21.94
2018-02-21T02:15:50.959Z,21.99
2018-02-21T02:16:50.992Z,21.91
2018-02-21T02:17:51.013Z,21.94
2018-02-21T02:18:51.040Z,21.96
2018-02-21T02:19:51.080Z,21.91
2018-02-21T02:20:51.096Z,21.91
2018-02-21T02:21:51.121Z,21.91
2018-02-21T02:22:51.148Z,21.88
2018-02-21T02:23:51.178Z,21.89
2018-02-21T02:24:51.207Z,21.94
2018-02-21T02:25:51.229Z,21.92
2018-02-21T02:26:51.257Z,21.91
2018-02-21T02:27:51.284Z,22.00
2018-02-21T02:28:51.312Z,21.88
2018-02-21T02:29:51.338Z,21.85
2018-02-21T02:30:51.366Z,21.89
2018-02-21T02:31:51.393Z,21.91
2018-02-21T02:32:51.420Z,21.97
2018-02-21T02:33:51.446Z,21.97
2018-02-21T02:34:51.476Z,21.88
2018-02-21T02:35:51.501Z,21.91
2018-02-21T02:36:51.527Z,21.85
2018-02-21T02:37:51.554Z,21.91
2018-02-21T02:38:51.597Z,21.97
2018-02-21T02:39:51.612Z,21.92
2018-02-21T02:40:51.638Z,21.88
2018-02-21T02:41:51.665Z,21.92
2018-02-21T02:42:51.690Z,21.92
2018-02-21T02:43:51.719Z,21.89
2018-02-21T02:44:51.745Z,21.92
2018-02-21T02:45:51.770Z,21.91
2018-02-21T02:46:51.798Z,21.96
2018-02-21T02:47:51.825Z,21.89
2018-02-21T02:48:51.853Z,21.88
2018-02-21T02:49:51.881Z,21.89
2018-02-21T02:50:51.908Z,21.88
2018-02-21T02:51:51.934Z,21.94
2018-02-21T02:52:51.962Z,21.92
2018-02-21T02:53:51.988Z,21.99
2018-02-21T02:54:52.014Z,21.80
2018-02-21T02:55:52.044Z,21.89
2018-02-21T02:56:52.069Z,21.89
2018-02-21T02:57:52.095Z,21.89
2018-02-21T02:58:52.123Z,21.94
2018-02-21T02:59:52.150Z,21.89
2018-02-21T03:00:52.178Z,21.88
2018-02-21T03:01:52.203Z,21.92
2018-02-21T03:02:52.232Z,21.91
2018-02-21T03:03:52.287Z,21.96
2018-02-21T03:04:52.286Z,21.85
2018-02-21T03:05:52.312Z,21.92
2018-02-21T03:06:52.340Z,21.91
2018-02-21T03:07:52.378Z,21.91
2018-02-21T03:08:52.393Z,21.88
2018-02-21T03:09:52.420Z,21.92
2018-02-21T03:10:52.447Z,21.92
2018-02-21T03:11:52.475Z,21.91
2018-02-21T03:12:52.501Z,21.96
2018-02-21T03:13:52.528Z,21.92
2018-02-21T03:14:52.555Z,21.92
2018-02-21T03:15:52.613Z,21.96
2018-02-21T03:16:52.610Z,21.97
2018-02-21T03:17:52.665Z,21.88
2018-02-21T03:18:52.664Z,21.97
2018-02-21T03:19:52.690Z,21.97
2018-02-21T03:20:52.742Z,21.84
2018-02-21T03:21:52.744Z,21.91
2018-02-21T03:22:52.772Z,21.89
2018-02-21T03:23:52.799Z,21.88
2018-02-21T03:24:52.828Z,21.92
2018-02-21T03:25:52.856Z,21.94
2018-02-21T03:26:52.881Z,21.89
2018-02-21T03:27:52.913Z,21.85
2018-02-21T03:28:52.935Z,21.92
2018-02-21T03:29:52.961Z,21.91
2018-02-21T03:30:52.990Z,22.00
2018-02-21T03:31:53.016Z,21.96
2018-02-21T03:32:53.054Z,22.00
2018-02-21T03:33:53.069Z,21.88
2018-02-21T03:34:53.118Z,21.92
2018-02-21T03:35:53.123Z,21.89
2018-02-21T03:36:53.151Z,21.97
2018-02-21T03:37:53.177Z,21.97
2018-02-21T03:38:53.205Z,21.96
2018-02-21T03:39:53.267Z,21.92
2018-02-21T03:40:53.259Z,22.00
2018-02-21T03:41:53.286Z,21.92
2018-02-21T03:42:53.313Z,21.96
2018-02-21T03:43:53.341Z,22.00
2018-02-21T03:44:53.432Z,22.00
2018-02-21T03:45:53.394Z,21.88
2018-02-21T03:46:53.421Z,21.91
2018-02-21T03:47:53.477Z,21.99
2018-02-21T03:48:53.477Z,21.91
2018-02-21T03:49:53.503Z,21.94
2018-02-21T03:50:53.529Z,21.97
2018-02-21T03:51:53.556Z,21.96
2018-02-21T03:52:53.584Z,21.99
2018-02-21T03:53:53.613Z,21.92
2018-02-21T03:54:53.638Z,22.00
2018-02-21T03:55:53.665Z,22.01
2018-02-21T03:56:53.693Z,21.89
2018-02-21T03:57:53.718Z,21.88
2018-02-21T03:58:53.746Z,21.96
2018-02-21T03:59:53.773Z,21.92
2018-02-21T04:00:53.800Z,21.89
2018-02-21T04:01:53.827Z,22.03
2018-02-21T04:02:53.855Z,22.06
2018-02-21T04:03:53.888Z,21.88
2018-02-21T04:04:53.939Z,21.97
2018-02-21T04:05:53.935Z,21.97
2018-02-21T04:06:53.963Z,21.97
2018-02-21T04:07:53.989Z,21.94
2018-02-21T04:08:54.020Z,21.97
2018-02-21T04:09:54.044Z,21.94
2018-02-21T04:10:54.070Z,22.03
2018-02-21T04:11:54.098Z,21.96
2018-02-21T04:12:54.125Z,21.92
2018-02-21T04:13:54.152Z,21.96
2018-02-21T04:14:54.184Z,21.92
2018-02-21T04:15:54.231Z,21.91
2018-02-21T04:16:54.233Z,21.96
2018-02-21T04:17:54.262Z,21.92
2018-02-21T04:18:54.290Z,21.94
2018-02-21T04:19:54.315Z,22.00
2018-02-21T04:20:54.342Z,21.96
2018-02-21T04:21:54.369Z,21.89
2018-02-21T04:22:54.398Z,21.92
2018-02-21T04:23:54.458Z,21.94
2018-02-21T04:24:54.454Z,21.92
2018-02-21T04:25:54.477Z,21.91
2018-02-21T04:26:54.504Z,21.97
2018-02-21T04:27:54.532Z,21.88
2018-02-21T04:28:54.559Z,21.96
2018-02-21T04:29:54.604Z,21.99
2018-02-21T04:30:54.612Z,21.92
2018-02-21T04:31:54.639Z,21.94
2018-02-21T04:32:54.670Z,21.96
2018-02-21T04:33:54.694Z,22.03
2018-02-21T04:34:54.722Z,21.91
2018-02-21T04:35:54.755Z,21.92
2018-02-21T04:36:54.775Z,22.00
2018-02-21T04:37:54.802Z,21.92
2018-02-21T04:38:54.829Z,21.94
2018-02-21T04:39:54.896Z,21.88
2018-02-21T04:40:54.884Z,21.92
2018-02-21T04:41:54.910Z,21.97
2018-02-21T04:42:54.937Z,21.94
2018-02-21T04:43:54.965Z,21.97
2018-02-21T04:44:54.992Z,21.97
2018-02-21T04:45:55.020Z,21.85
2018-02-21T04:46:55.045Z,21.89
2018-02-21T04:47:55.073Z,21.89
2018-02-21T04:48:55.104Z,21.88
2018-02-21T04:49:55.127Z,21.88
2018-02-21T04:50:55.155Z,21.92
2018-02-21T04:51:55.182Z,21.96
2018-02-21T04:52:55.209Z,21.88
2018-02-21T04:53:55.236Z,21.91
2018-02-21T04:54:55.264Z,21.92
2018-02-21T04:55:55.290Z,21.85
2018-02-21T04:56:55.318Z,21.91
2018-02-21T04:57:55.345Z,21.89
2018-02-21T04:58:55.372Z,21.91
2018-02-21T04:59:55.398Z,21.89
2018-02-21T05:00:55.425Z,21.94
2018-02-21T05:01:55.453Z,21.94
2018-02-21T05:02:55.479Z,21.94
2018-02-21T05:03:55.507Z,21.84
2018-02-21T05:04:55.534Z,21.83
2018-02-21T05:05:55.560Z,21.80
2018-02-21T05:06:55.590Z,21.83
2018-02-21T05:07:55.615Z,21.84
2018-02-21T05:08:55.643Z,21.89
2018-02-21T05:09:55.668Z,21.83
2018-02-21T05:10:55.696Z,21.85
2018-02-21T05:11:55.735Z,21.83
2018-02-21T05:12:55.751Z,21.88
2018-02-21T05:13:55.780Z,21.89
2018-02-21T05:14:55.804Z,21.92
2018-02-21T05:15:55.831Z,21.89
2018-02-21T05:16:55.860Z,21.91
2018-02-21T05:17:55.885Z,21.91
2018-02-21T05:18:55.917Z,21.97
2018-02-21T05:19:55.939Z,21.91
2018-02-21T05:20:55.966Z,21.96
2018-02-21T05:21:55.993Z,21.91
2018-02-21T05:22:56.020Z,21.89
2018-02-21T05:23:56.053Z,21.85
2018-02-21T05:24:56.075Z,21.89
2018-02-21T05:25:56.102Z,21.89
2018-02-21T05:26:56.128Z,21.99
2018-02-21T05:27:56.186Z,21.92
2018-02-21T05:28:56.183Z,22.00
2018-02-21T05:29:56.210Z,22.01
2018-02-21T05:30:56.238Z,21.97
2018-02-21T05:31:56.264Z,21.92
2018-02-21T05:32:56.291Z,21.97
2018-02-21T05:33:56.352Z,21.99
2018-02-21T05:34:56.345Z,22.01
2018-02-21T05:35:56.373Z,21.92
2018-02-21T05:36:56.400Z,21.92
2018-02-21T05:37:56.425Z,21.99
2018-02-21T05:38:56.453Z,22.03
2018-02-21T05:39:56.481Z,22.06
2018-02-21T05:40:56.508Z,21.94
2018-02-21T05:41:56.535Z,22.07
2018-02-21T05:42:56.563Z,22.03
2018-02-21T05:43:56.589Z,22.06
2018-02-21T05:44:56.616Z,21.99
2018-02-21T05:45:56.650Z,22.04
2018-02-21T05:46:56.670Z,22.10
2018-02-21T05:47:56.740Z,22.07
2018-02-21T05:48:56.728Z,22.10
2018-02-21T05:49:56.758Z,22.16
2018-02-21T05:50:56.779Z,22.12
2018-02-21T05:51:56.806Z,22.10
2018-02-21T05:52:56.838Z,22.18
2018-02-21T05:53:56.859Z,22.18
2018-02-21T05:54:56.888Z,22.14
2018-02-21T05:55:56.913Z,22.19
2018-02-21T05:56:56.941Z,22.16
2018-02-21T05:57:56.988Z,22.19
2018-02-21T05:58:56.994Z,22.25
2018-02-21T05:59:57.022Z,22.28
2018-02-21T06:00:57.050Z,22.25
2018-02-21T06:01:57.076Z,22.31
2018-02-21T06:02:57.130Z,22.34
2018-02-21T06:03:57.131Z,22.30
2018-02-21T06:04:57.158Z,22.28
2018-02-21T06:05:57.184Z,22.34
2018-02-21T06:06:57.213Z,22.36
2018-02-21T06:07:57.244Z,22.33
2018-02-21T06:08:57.270Z,22.36
2018-02-21T06:09:57.293Z,22.31
2018-02-21T06:10:57.321Z,22.28
2018-02-21T06:11:57.348Z,22.26
2018-02-21T06:12:57.379Z,22.36
2018-02-21T06:13:57.402Z,22.36
2018-02-21T06:14:57.432Z,22.26
2018-02-21T06:15:57.456Z,22.26
2018-02-21T06:16:57.513Z,22.25
2018-02-21T06:17:57.514Z,22.33
2018-02-21T06:18:57.538Z,22.33
2018-02-21T06:19:57.565Z,22.25
2018-02-21T06:20:57.594Z,22.25
2018-02-21T06:21:57.619Z,22.23
2018-02-21T06:22:57.648Z,22.25
2018-02-21T06:23:57.675Z,22.22
2018-02-21T06:24:57.712Z,22.22
2018-02-21T06:25:57.728Z,22.26
2018-02-21T06:26:57.758Z,22.26
2018-02-21T06:27:57.784Z,22.23
2018-02-21T06:28:57.811Z,22.28
2018-02-21T06:29:57.837Z,22.25
2018-02-21T06:30:57.869Z,22.22
2018-02-21T06:31:57.892Z,22.25
2018-02-21T06:32:57.919Z,22.22
2018-02-21T06:33:57.946Z,22.21
2018-02-21T06:34:57.972Z,22.19
2018-02-21T06:35:58.001Z,22.26
2018-02-21T06:36:58.029Z,22.21
2018-02-21T06:37:58.055Z,22.33
2018-02-21T06:38:58.186Z,22.22
2018-02-21T06:39:58.124Z,22.21
2018-02-21T06:40:58.139Z,22.25
2018-02-21T06:41:58.164Z,22.33
2018-02-21T06:42:58.191Z,22.25
2018-02-21T06:43:58.218Z,22.26
2018-02-21T06:44:58.251Z,22.31
2018-02-21T06:45:58.272Z,22.33
2018-02-21T06:46:58.300Z,22.43
2018-02-21T06:47:58.327Z,22.37
2018-02-21T06:48:58.366Z,22.37
2018-02-21T06:49:58.380Z,22.41
2018-02-21T06:50:58.408Z,22.40
2018-02-21T06:51:58.435Z,22.52
2018-02-21T06:52:58.462Z,22.44
2018-02-21T06:53:58.489Z,22.55
2018-02-21T06:54:58.537Z,22.55
2018-02-21T06:55:58.544Z,22.55
2018-02-21T06:56:58.572Z,22.58
2018-02-21T06:57:58.598Z,22.62
2018-02-21T06:58:58.629Z,22.61
2018-02-21T06:59:58.653Z,22.63
2018-02-21T07:00:58.681Z,22.67
2018-02-21T07:01:58.710Z,22.67
2018-02-21T07:02:58.760Z,22.53
2018-02-21T07:03:58.762Z,22.56
2018-02-21T07:04:58.791Z,22.65
2018-02-21T07:05:58.816Z,22.67
2018-02-21T07:06:58.844Z,22.63
2018-02-21T07:07:58.873Z,22.68
2018-02-21T07:08:58.899Z,22.58
2018-02-21T07:09:58.927Z,22.65
2018-02-21T07:10:58.984Z,22.65
2018-02-21T07:11:58.991Z,22.63
2018-02-21T07:12:59.009Z,22.56
2018-02-21T07:13:59.035Z,22.62
2018-02-21T07:14:59.067Z,22.63
2018-02-21T07:15:59.091Z,22.67
2018-02-21T07:16:59.119Z,22.62
2018-02-21T07:17:59.144Z,22.59
2018-02-21T07:18:59.173Z,22.56
2018-02-21T07:19:59.201Z,22.62
2018-02-21T07:20:59.227Z,22.59
2018-02-21T07:21:59.255Z,22.55
2018-02-21T07:22:59.281Z,22.59
2018-02-21T07:23:59.309Z,22.51
2018-02-21T07:24:59.369Z,22.52
2018-02-21T07:25:59.364Z,22.47
2018-02-21T07:26:59.397Z,22.62
2018-02-21T07:27:59.428Z,22.55
2018-02-21T07:28:59.446Z,22.53
2018-02-21T07:29:59.513Z,22.52
2018-02-21T07:30:59.546Z,22.56
2018-02-21T07:31:59.528Z,22.51
2018-02-21T07:32:59.557Z,22.47
2018-02-21T07:33:59.581Z,22.52
2018-02-21T07:34:59.609Z,22.53
2018-02-21T07:35:59.645Z,22.55
2018-02-21T07:36:59.664Z,22.56
2018-02-21T07:37:59.691Z,22.58
2018-02-21T07:38:59.718Z,22.56
2018-02-21T07:39:59.747Z,22.56
2018-02-21T07:40:59.783Z,22.56
2018-02-21T07:41:59.831Z,22.53
2018-02-21T07:42:59.829Z,22.47
2018-02-21T07:43:59.857Z,22.56
2018-02-21T07:44:59.882Z,22.58
2018-02-21T07:45:59.914Z,22.56
2018-02-21T07:46:59.942Z,22.61
2018-02-21T07:47:59.984Z,22.58
2018-02-21T07:49:00.012Z,22.62
2018-02-21T07:50:00.028Z,22.59
2018-02-21T07:51:00.047Z,22.58
2018-02-21T07:52:00.078Z,22.65
2018-02-21T07:53:00.125Z,22.76
2018-02-21T07:54:00.131Z,22.76
2018-02-21T07:55:00.188Z,22.78
2018-02-21T07:56:00.190Z,22.78
2018-02-21T07:57:00.211Z,22.83
2018-02-21T07:58:00.254Z,22.86
2018-02-21T07:59:00.266Z,22.93
2018-02-21T08:00:00.293Z,22.89
2018-02-21T08:01:00.360Z,22.88
2018-02-21T08:02:00.360Z,23.01
2018-02-21T08:03:00.382Z,22.99
2018-02-21T08:04:00.406Z,22.89
2018-02-21T08:05:00.477Z,22.96
2018-02-21T08:06:00.492Z,22.93
2018-02-21T08:07:00.506Z,22.91
2018-02-21T08:08:00.514Z,22.89
2018-02-21T08:09:00.540Z,22.92
2018-02-21T08:10:00.570Z,22.89
2018-02-21T08:11:00.604Z,22.88
2018-02-21T08:12:00.625Z,22.89
2018-02-21T08:13:00.688Z,22.77
2018-02-21T08:14:00.724Z,22.78
2018-02-21T08:15:00.709Z,22.71
2018-02-21T08:16:00.771Z,22.78
2018-02-21T08:17:00.760Z,22.71
2018-02-21T08:18:01.768Z,22.81
2018-02-21T08:19:00.816Z,22.74
2018-02-21T08:20:00.846Z,22.70
2018-02-21T08:21:00.872Z,22.71
2018-02-21T08:22:00.898Z,22.65
2018-02-21T08:23:00.925Z,22.62
2018-02-21T08:24:00.959Z,22.67
2018-02-21T08:25:00.978Z,22.68
2018-02-21T08:26:01.005Z,22.68
2018-02-21T08:27:01.036Z,22.59
2018-02-21T08:28:01.060Z,22.67
2018-02-21T08:29:01.094Z,22.62
2018-02-21T08:30:01.115Z,22.65
2018-02-21T08:31:01.158Z,22.63
2018-02-21T08:32:01.174Z,22.67
2018-02-21T08:33:01.803Z,22.59
2018-02-21T08:34:01.230Z,22.61
2018-02-21T08:35:01.261Z,22.53
2018-02-21T08:36:01.287Z,22.65
2018-02-21T08:37:01.319Z,22.56
2018-02-21T08:38:01.343Z,22.62
2018-02-21T08:39:01.373Z,22.58
2018-02-21T08:40:01.396Z,22.55
2018-02-21T08:41:01.431Z,22.63
2018-02-21T08:42:01.451Z,22.51
2018-02-21T08:43:01.479Z,22.51
2018-02-21T08:44:01.507Z,22.53
2018-02-21T08:45:02.285Z,22.59
2018-02-21T08:46:01.574Z,22.58
2018-02-21T08:47:01.591Z,22.62
2018-02-21T08:48:01.617Z,22.62
2018-02-21T08:49:01.646Z,22.61
2018-02-21T08:50:01.674Z,22.65
2018-02-21T08:51:01.701Z,22.68
2018-02-21T08:52:01.738Z,22.63
2018-02-21T08:53:01.757Z,22.63
2018-02-21T08:54:01.808Z,22.71
2018-02-21T08:55:01.810Z,22.73
2018-02-21T08:56:01.828Z,22.70
2018-02-21T08:57:01.865Z,22.73
2018-02-21T08:58:01.890Z,22.76
2018-02-21T08:59:01.917Z,22.81
2018-02-21T09:00:01.949Z,22.74
2018-02-21T09:01:01.970Z,22.84
2018-02-21T09:02:01.996Z,22.84
2018-02-21T09:03:02.020Z,22.81
2018-02-21T09:04:02.100Z,22.86
2018-02-21T09:05:02.081Z,22.76
2018-02-21T09:06:02.107Z,22.88
2018-02-21T09:07:02.159Z,22.83
2018-02-21T09:08:02.157Z,22.83
2018-02-21T09:09:02.186Z,22.88
2018-02-21T09:10:02.215Z,22.77
2018-02-21T09:11:02.237Z,22.80
2018-02-21T09:12:02.797Z,22.83
2018-02-21T09:13:02.294Z,22.89
2018-02-21T09:14:02.323Z,22.80
2018-02-21T09:15:02.349Z,22.81
2018-02-21T09:16:02.376Z,22.84
2018-02-21T09:17:02.404Z,22.92
2018-02-21T09:18:02.435Z,22.77
2018-02-21T09:19:02.457Z,22.80
2018-02-21T09:20:02.493Z,22.78
2018-02-21T09:21:02.522Z,22.78
2018-02-21T09:22:02.550Z,22.80
2018-02-21T09:23:02.572Z,22.84
2018-02-21T09:24:02.596Z,22.80
2018-02-21T09:25:02.631Z,22.83
2018-02-21T09:26:02.649Z,22.84
2018-02-21T09:27:02.678Z,22.89
2018-02-21T09:28:02.706Z,22.89
2018-02-21T09:29:02.734Z,22.88
2018-02-21T09:30:02.771Z,22.84
2018-02-21T09:31:02.791Z,22.76
2018-02-21T09:32:02.815Z,22.84
2018-02-21T09:33:02.842Z,22.89
2018-02-21T09:34:02.874Z,22.84
2018-02-21T09:35:02.896Z,22.83
2018-02-21T09:36:02.926Z,22.84
2018-02-21T09:37:02.971Z,22.80
2018-02-21T09:38:02.981Z,22.89
2018-02-21T09:39:03.010Z,22.84
2018-02-21T09:40:03.036Z,22.83
2018-02-21T09:41:03.808Z,22.84
2018-02-21T09:42:03.089Z,22.88
2018-02-21T09:43:03.119Z,22.89
2018-02-21T09:44:03.152Z,22.84
2018-02-21T09:45:03.174Z,22.86
2018-02-21T09:46:03.200Z,22.86
2018-02-21T09:47:03.264Z,22.81
2018-02-21T09:48:03.255Z,22.83
2018-02-21T09:49:03.281Z,22.88
2018-02-21T09:50:03.313Z,22.80
2018-02-21T09:51:04.326Z,22.84
2018-02-21T09:52:03.364Z,22.89
2018-02-21T09:53:03.392Z,22.86
2018-02-21T09:54:03.419Z,22.84
2018-02-21T09:55:03.447Z,22.80
2018-02-21T09:56:03.475Z,22.88
2018-02-21T09:57:03.506Z,22.89
2018-02-21T09:58:03.533Z,22.84
2018-02-21T09:59:03.562Z,22.88
2018-02-21T10:00:03.592Z,22.86
2018-02-21T10:01:03.612Z,22.88
2018-02-21T10:02:03.639Z,22.86
2018-02-21T10:03:03.667Z,22.91
2018-02-21T10:04:03.695Z,22.89
2018-02-21T10:05:03.722Z,22.95
2018-02-21T10:06:03.749Z,22.89
2018-02-21T10:07:03.778Z,22.95
2018-02-21T10:08:03.804Z,22.98
2018-02-21T10:09:03.831Z,22.95
2018-02-21T10:10:03.893Z,22.92
2018-02-21T10:11:03.889Z,22.96
2018-02-21T10:12:03.924Z,22.91
2018-02-21T10:13:03.942Z,22.92
2018-02-21T10:14:04.009Z,22.95
2018-02-21T10:15:04.041Z,22.96
2018-02-21T10:16:04.024Z,23.02
2018-02-21T10:17:04.825Z,22.95
2018-02-21T10:18:04.140Z,22.92
2018-02-21T10:19:04.107Z,22.95
2018-02-21T10:20:04.827Z,23.07
2018-02-21T10:21:04.165Z,22.96
2018-02-21T10:22:04.188Z,22.96
2018-02-21T10:23:04.247Z,22.95
2018-02-21T10:24:04.245Z,22.93
2018-02-21T10:25:04.270Z,22.98
2018-02-21T10:26:04.299Z,22.91
2018-02-21T10:27:04.328Z,22.88
2018-02-21T10:28:04.354Z,22.96
2018-02-21T10:29:04.414Z,22.91
2018-02-21T10:30:04.433Z,22.93
2018-02-21T10:31:04.479Z,22.96
2018-02-21T10:32:04.463Z,22.83
2018-02-21T10:33:04.492Z,22.84
2018-02-21T10:34:05.256Z,22.81
2018-02-21T10:35:04.583Z,22.89
2018-02-21T10:36:04.574Z,22.83
2018-02-21T10:37:04.612Z,22.76
2018-02-21T10:38:04.637Z,22.92
2018-02-21T10:39:04.664Z,22.95
2018-02-21T10:40:04.687Z,22.78
2018-02-21T10:41:04.717Z,22.88
2018-02-21T10:42:05.344Z,22.78
2018-02-21T10:43:04.771Z,22.89
2018-02-21T10:44:04.798Z,22.89
2018-02-21T10:45:05.338Z,22.80
2018-02-21T10:46:05.846Z,22.84
2018-02-21T10:47:04.876Z,22.89
2018-02-21T10:48:04.904Z,22.84
2018-02-21T10:49:04.937Z,22.86
2018-02-21T10:50:04.962Z,22.86
2018-02-21T10:51:04.986Z,22.86
2018-02-21T10:52:05.026Z,22.84
2018-02-21T10:53:05.042Z,22.91
2018-02-21T10:54:05.077Z,22.91
2018-02-21T10:55:05.100Z,22.84
2018-02-21T10:56:05.124Z,22.91
2018-02-21T10:57:05.150Z,22.91
2018-02-21T10:58:05.178Z,22.91
2018-02-21T10:59:05.207Z,22.91
2018-02-21T11:00:05.234Z,22.96
2018-02-21T11:01:05.260Z,22.89
2018-02-21T11:02:05.286Z,22.96
2018-02-21T11:03:05.347Z,22.91
2018-02-21T11:04:05.342Z,22.86
2018-02-21T11:05:05.373Z,22.91
2018-02-21T11:06:05.398Z,22.89
2018-02-21T11:07:05.425Z,22.96
2018-02-21T11:08:05.452Z,22.95
2018-02-21T11:09:05.479Z,22.93
2018-02-21T11:10:05.507Z,22.92
2018-02-21T11:11:05.585Z,22.89
2018-02-21T11:12:05.566Z,22.96
2018-02-21T11:13:05.590Z,22.86
2018-02-21T11:14:05.618Z,22.96
2018-02-21T11:15:05.684Z,22.91
2018-02-21T11:16:05.672Z,22.89
2018-02-21T11:17:05.702Z,22.93
2018-02-21T11:18:05.726Z,22.86
2018-02-21T11:19:05.755Z,22.92
2018-02-21T11:20:05.782Z,22.91
2018-02-21T11:21:05.811Z,22.89
2018-02-21T11:22:05.837Z,22.88
2018-02-21T11:23:05.864Z,22.86
2018-02-21T11:24:05.892Z,22.83
2018-02-21T11:25:05.920Z,22.89
2018-02-21T11:26:05.946Z,22.86
2018-02-21T11:27:05.974Z,22.81
2018-02-21T11:28:06.002Z,22.77
2018-02-21T11:29:06.030Z,22.88
2018-02-21T11:30:06.057Z,22.83
2018-02-21T11:31:06.089Z,22.73
2018-02-21T11:32:06.112Z,22.76
2018-02-21T11:33:06.139Z,22.81
2018-02-21T11:34:06.207Z,22.81
2018-02-21T11:35:06.194Z,22.71
2018-02-21T11:36:06.222Z,22.77
2018-02-21T11:37:06.283Z,22.68
2018-02-21T11:38:06.276Z,22.77
2018-02-21T11:39:06.309Z,22.74
2018-02-21T11:40:06.332Z,22.71
2018-02-21T11:41:06.360Z,22.76
2018-02-21T11:42:06.401Z,22.74
2018-02-21T11:43:06.414Z,22.74
2018-02-21T11:44:06.442Z,22.70
2018-02-21T11:45:06.469Z,22.74
2018-02-21T11:46:06.496Z,22.74
2018-02-21T11:47:06.523Z,22.68
2018-02-21T11:48:06.552Z,22.77
2018-02-21T11:49:06.581Z,22.76
2018-02-21T11:50:06.605Z,22.77
2018-02-21T11:51:06.633Z,22.74
2018-02-21T11:52:06.661Z,22.71
2018-02-21T11:53:06.688Z,22.76
2018-02-21T11:54:06.715Z,22.77
2018-02-21T11:55:06.743Z,22.76
2018-02-21T11:56:06.772Z,22.74
2018-02-21T11:57:06.799Z,22.68
2018-02-21T11:58:06.831Z,22.74
2018-02-21T11:59:06.853Z,22.73
2018-02-21T12:00:06.881Z,22.67
2018-02-21T12:01:06.908Z,22.73
2018-02-21T12:02:06.938Z,22.65
2018-02-21T12:03:06.993Z,22.63
2018-02-21T12:04:06.992Z,22.76
2018-02-21T12:05:07.018Z,22.74
2018-02-21T12:06:07.045Z,22.71
2018-02-21T12:07:07.072Z,22.76
2018-02-21T12:08:07.100Z,22.73
2018-02-21T12:09:07.128Z,22.73
2018-02-21T12:10:07.155Z,22.78
2018-02-21T12:11:07.182Z,22.74
2018-02-21T12:12:07.227Z,22.71
2018-02-21T12:13:07.268Z,22.76
2018-02-21T12:14:07.263Z,22.73
2018-02-21T12:15:07.292Z,22.74
2018-02-21T12:16:07.319Z,22.78
2018-02-21T12:17:07.349Z,22.80
2018-02-21T12:18:07.373Z,22.78
2018-02-21T12:19:07.442Z,22.77
2018-02-21T12:20:07.452Z,22.74
2018-02-21T12:21:07.457Z,22.73
2018-02-21T12:22:07.490Z,22.70
2018-02-21T12:23:07.510Z,22.80
2018-02-21T12:24:07.539Z,22.78
2018-02-21T12:25:07.567Z,22.81
2018-02-21T12:26:07.592Z,22.78
2018-02-21T12:27:07.621Z,22.74
2018-02-21T12:28:07.648Z,22.70
2018-02-21T12:29:07.698Z,22.77
2018-02-21T12:30:07.703Z,22.74
2018-02-21T12:31:07.730Z,22.80
2018-02-21T12:32:07.758Z,22.71
2018-02-21T12:33:07.785Z,22.73
2018-02-21T12:34:07.813Z,22.76
2018-02-21T12:35:07.840Z,22.77
2018-02-21T12:36:07.869Z,22.76
2018-02-21T12:37:07.896Z,22.76
2018-02-21T12:38:07.923Z,22.74
2018-02-21T12:39:07.950Z,22.76
2018-02-21T12:40:07.977Z,22.71
2018-02-21T12:41:08.005Z,22.76
2018-02-21T12:42:08.031Z,22.73
2018-02-21T12:43:08.059Z,22.77
2018-02-21T12:44:08.087Z,22.74
2018-02-21T12:45:08.114Z,22.73
2018-02-21T12:46:08.146Z,22.71
2018-02-21T12:47:08.205Z,22.71
2018-02-21T12:48:08.196Z,22.77
2018-02-21T12:49:08.224Z,22.65
2018-02-21T12:50:08.307Z,22.62
2018-02-21T12:51:08.279Z,22.73
2018-02-21T12:52:08.306Z,22.73
2018-02-21T12:53:08.333Z,22.73